หน้าหลัก
METAR-TAF:

METAR-TAF

ท่าอากาศยาน :

Alamogordo, นิวเม็กซิโก, สหรัฐอเมริกา

ละติจูด: 32-50N, ลองจิจูด: 105-59W, ความสูง: 1279 ม.

การสังเกตสภาพอากาศปัจจุบัน

รายงานได้ทำขึ้นเมื่อ 23 นาทีที่แล้ว ณ เวลา 15:15 UTC
ลม 3 นอตจากตะวันออกเฉียงใต้
อุณหภูมิ 27°C
ความชื้น 37%
ความกดอากาศ 1021 hPa
ทัศนวิสัย: 16.1 กม.
ท้องฟ้าแจ่มใส

METAR: KALM 121515Z AUTO 14003KT 10SM CLR 27/11 A3016 RMK AO2

เวลา: 09:38 (15:38 UTC)


TAF: หายไป

สังเกตการณ์สภาพอากาศและพยากรณ์อากาศของสนามบินมากกว่า 4000 แห่ง (รายงาน METAR และ TAF).

สถานีที่ดูได้จะแสดงไว้ด้วยจุดสีเหลืองและสีแดงบนแผนที่.

เลื่อนเมาส์ไปเหนือจุดเพื่อดูชื่อสถานี.

แล้วคลิกเพื่อดูสังเกตการณ์และการพยากรณ์สภาพอากาศ.

ในการเปลี่ยนแผนที่: คลิกที่ปุ่มสีเขียวที่มีกากบาทสีดำเพื่อซูมเข้า; ที่ปุ่มสีเขียวที่มีขีดเพื่อซูมออก; หรือที่ลูกศรสีเขียวเพื่อไปยังแผนที่ที่อยู่ติดกัน.


METAR-TAF: